Urundel, Argentina
Current Conditions -  °F | °C
As of 6:00 PM on Wednesday 28 Jan 2015 (Local Time) from SASJ Reporting Station
Thunderstorm Thunderstorm  
Wind Chill: 90°   Ceiling: 6000
Heat Index: 91°   Visibility: 6mi
Dew Point: 64°   Wind: 3mph
Humidity: 43%   Direction: 360°N
Pressure: 29.77"   Gusts: NA
Location:  23.55°S, 64.42°W
Report Text: SASJ 282100Z 36003KT 9999 -TSRA SCT035FEW045CB BKN060 32/18 Q1008
Loading
Personal Weather Stations






























Interactive Weather Map New forecast layout! Learn more

10-Day Weather Forecast

Advertisements
Track Severe Weather on mobile